sensor_id;sensor_type;location;lat;lon;timestamp;P1;durP1;ratioP1;P2;durP2;ratioP2
69363;SDS011;56526;55.406;86.130;2022-08-24T00:00:26;10.20;;;8.05;;
69363;SDS011;56526;55.406;86.130;2022-08-24T00:02:54;8.50;;;6.68;;
69363;SDS011;56526;55.406;86.130;2022-08-24T00:05:20;13.43;;;7.78;;
69363;SDS011;56526;55.406;86.130;2022-08-24T00:07:48;12.95;;;7.20;;
69363;SDS011;56526;55.406;86.130;2022-08-24T00:10:15;10.98;;;8.77;;
69363;SDS011;56526;55.406;86.130;2022-08-24T00:12:43;12.80;;;8.88;;
69363;SDS011;56526;55.406;86.130;2022-08-24T00:15:10;18.88;;;8.77;;
69363;SDS011;56526;55.406;86.130;2022-08-24T00:17:38;15.48;;;8.65;;
69363;SDS011;56526;55.406;86.130;2022-08-24T00:20:05;14.07;;;9.50;;
69363;SDS011;56526;55.406;86.130;2022-08-24T00:22:33;14.90;;;9.80;;
69363;SDS011;56526;55.406;86.130;2022-08-24T00:24:59;21.55;;;10.13;;
69363;SDS011;56526;55.406;86.130;2022-08-24T00:27:26;16.58;;;9.05;;
69363;SDS011;56526;55.406;86.130;2022-08-24T00:29:54;15.45;;;9.57;;
69363;SDS011;56526;55.406;86.130;2022-08-24T00:32:20;14.48;;;9.60;;
69363;SDS011;56526;55.406;86.130;2022-08-24T00:34:46;15.77;;;11.25;;
69363;SDS011;56526;55.406;86.130;2022-08-24T00:37:12;15.40;;;9.68;;
69363;SDS011;56526;55.406;86.130;2022-08-24T00:39:39;28.95;;;10.55;;
69363;SDS011;56526;55.406;86.130;2022-08-24T00:42:06;19.40;;;10.35;;
69363;SDS011;56526;55.406;86.130;2022-08-24T00:44:36;15.48;;;9.85;;
69363;SDS011;56526;55.406;86.130;2022-08-24T00:47:04;12.27;;;8.65;;
69363;SDS011;56526;55.406;86.130;2022-08-24T00:49:58;16.85;;;10.00;;
69363;SDS011;56526;55.406;86.130;2022-08-24T00:52:32;16.05;;;9.23;;
69363;SDS011;56526;55.406;86.130;2022-08-24T00:55:15;17.83;;;9.93;;
69363;SDS011;56526;55.406;86.130;2022-08-24T00:57:54;16.15;;;10.13;;
69363;SDS011;56526;55.406;86.130;2022-08-24T01:00:27;17.02;;;8.95;;
69363;SDS011;56526;55.406;86.130;2022-08-24T01:02:59;15.48;;;9.18;;
69363;SDS011;56526;55.406;86.130;2022-08-24T01:05:29;15.38;;;9.10;;
69363;SDS011;56526;55.406;86.130;2022-08-24T01:08:01;20.67;;;8.68;;
69363;SDS011;56526;55.406;86.130;2022-08-24T01:10:32;12.48;;;7.75;;
69363;SDS011;56526;55.406;86.130;2022-08-24T01:13:03;13.35;;;8.20;;
69363;SDS011;56526;55.406;86.130;2022-08-24T01:15:37;12.63;;;8.77;;
69363;SDS011;56526;55.406;86.130;2022-08-24T01:18:07;11.32;;;5.97;;
69363;SDS011;56526;55.406;86.130;2022-08-24T01:20:43;14.00;;;5.57;;
69363;SDS011;56526;55.406;86.130;2022-08-24T01:23:27;14.38;;;6.30;;
69363;SDS011;56526;55.406;86.130;2022-08-24T01:26:04;16.60;;;7.43;;
69363;SDS011;56526;55.406;86.130;2022-08-24T01:28:33;11.82;;;6.90;;
69363;SDS011;56526;55.406;86.130;2022-08-24T01:30:59;15.65;;;7.18;;
69363;SDS011;56526;55.406;86.130;2022-08-24T01:33:27;10.77;;;6.20;;
69363;SDS011;56526;55.406;86.130;2022-08-24T01:36:08;14.60;;;7.75;;
69363;SDS011;56526;55.406;86.130;2022-08-24T01:39:14;16.48;;;7.45;;
69363;SDS011;56526;55.406;86.130;2022-08-24T01:41:45;14.68;;;5.20;;
69363;SDS011;56526;55.406;86.130;2022-08-24T01:44:17;13.98;;;6.53;;
69363;SDS011;56526;55.406;86.130;2022-08-24T01:46:46;19.00;;;7.45;;
69363;SDS011;56526;55.406;86.130;2022-08-24T01:49:14;9.27;;;7.03;;
69363;SDS011;56526;55.406;86.130;2022-08-24T01:51:41;16.70;;;8.02;;
69363;SDS011;56526;55.406;86.130;2022-08-24T01:54:08;14.55;;;6.55;;
69363;SDS011;56526;55.406;86.130;2022-08-24T01:56:34;16.77;;;7.75;;
69363;SDS011;56526;55.406;86.130;2022-08-24T01:59:02;13.43;;;7.20;;
69363;SDS011;56526;55.406;86.130;2022-08-24T02:01:31;15.82;;;7.75;;
69363;SDS011;56526;55.406;86.130;2022-08-24T02:04:04;12.48;;;7.05;;
69363;SDS011;56526;55.406;86.130;2022-08-24T02:06:32;12.90;;;7.40;;
69363;SDS011;56526;55.406;86.130;2022-08-24T02:08:59;15.52;;;8.88;;
69363;SDS011;56526;55.406;86.130;2022-08-24T02:11:26;14.18;;;8.98;;
69363;SDS011;56526;55.406;86.130;2022-08-24T02:13:53;12.27;;;8.57;;
69363;SDS011;56526;55.406;86.130;2022-08-24T02:16:19;12.77;;;5.45;;
69363;SDS011;56526;55.406;86.130;2022-08-24T02:18:46;12.07;;;9.02;;
69363;SDS011;56526;55.406;86.130;2022-08-24T02:21:12;16.38;;;9.13;;
69363;SDS011;56526;55.406;86.130;2022-08-24T02:23:39;18.20;;;6.40;;
69363;SDS011;56526;55.406;86.130;2022-08-24T02:26:07;15.15;;;9.50;;
69363;SDS011;56526;55.406;86.130;2022-08-24T02:28:35;16.77;;;10.48;;
69363;SDS011;56526;55.406;86.130;2022-08-24T02:31:02;17.15;;;10.07;;
69363;SDS011;56526;55.406;86.130;2022-08-24T02:33:30;17.52;;;9.02;;
69363;SDS011;56526;55.406;86.130;2022-08-24T02:35:58;14.82;;;8.80;;
69363;SDS011;56526;55.406;86.130;2022-08-24T02:38:24;12.77;;;6.68;;
69363;SDS011;56526;55.406;86.130;2022-08-24T02:40:51;17.67;;;8.90;;
69363;SDS011;56526;55.406;86.130;2022-08-24T02:43:17;16.90;;;9.63;;
69363;SDS011;56526;55.406;86.130;2022-08-24T02:45:44;18.50;;;9.45;;
69363;SDS011;56526;55.406;86.130;2022-08-24T02:48:12;18.52;;;9.45;;
69363;SDS011;56526;55.406;86.130;2022-08-24T02:50:40;17.83;;;10.10;;
69363;SDS011;56526;55.406;86.130;2022-08-24T02:53:09;22.85;;;12.40;;
69363;SDS011;56526;55.406;86.130;2022-08-24T02:55:37;18.52;;;10.80;;
69363;SDS011;56526;55.406;86.130;2022-08-24T02:58:03;22.25;;;11.45;;
69363;SDS011;56526;55.406;86.130;2022-08-24T03:00:31;20.58;;;11.98;;
69363;SDS011;56526;55.406;86.130;2022-08-24T03:02:57;19.85;;;11.55;;
69363;SDS011;56526;55.406;86.130;2022-08-24T03:05:23;24.92;;;12.00;;
69363;SDS011;56526;55.406;86.130;2022-08-24T03:07:50;22.08;;;11.02;;
69363;SDS011;56526;55.406;86.130;2022-08-24T03:10:16;22.10;;;12.48;;
69363;SDS011;56526;55.406;86.130;2022-08-24T03:12:43;23.58;;;12.18;;
69363;SDS011;56526;55.406;86.130;2022-08-24T03:15:10;22.55;;;12.48;;
69363;SDS011;56526;55.406;86.130;2022-08-24T03:17:37;21.38;;;11.15;;
69363;SDS011;56526;55.406;86.130;2022-08-24T03:20:05;21.95;;;11.80;;
69363;SDS011;56526;55.406;86.130;2022-08-24T03:22:37;20.90;;;11.57;;
69363;SDS011;56526;55.406;86.130;2022-08-24T03:25:04;16.63;;;11.57;;
69363;SDS011;56526;55.406;86.130;2022-08-24T03:27:32;22.30;;;11.77;;
69363;SDS011;56526;55.406;86.130;2022-08-24T03:29:58;21.00;;;12.82;;
69363;SDS011;56526;55.406;86.130;2022-08-24T03:32:25;17.98;;;11.48;;
69363;SDS011;56526;55.406;86.130;2022-08-24T03:34:52;20.75;;;11.95;;
69363;SDS011;56526;55.406;86.130;2022-08-24T03:37:18;21.58;;;11.88;;
69363;SDS011;56526;55.406;86.130;2022-08-24T03:39:45;22.80;;;11.52;;
69363;SDS011;56526;55.406;86.130;2022-08-24T03:42:12;16.70;;;9.98;;
69363;SDS011;56526;55.406;86.130;2022-08-24T03:44:39;19.35;;;11.65;;
69363;SDS011;56526;55.406;86.130;2022-08-24T03:47:06;17.88;;;10.80;;
69363;SDS011;56526;55.406;86.130;2022-08-24T03:49:33;22.17;;;11.30;;
69363;SDS011;56526;55.406;86.130;2022-08-24T03:51:59;22.83;;;11.88;;
69363;SDS011;56526;55.406;86.130;2022-08-24T03:54:26;25.52;;;12.82;;
69363;SDS011;56526;55.406;86.130;2022-08-24T03:56:52;17.98;;;10.25;;
69363;SDS011;56526;55.406;86.130;2022-08-24T03:59:18;22.95;;;10.57;;
69363;SDS011;56526;55.406;86.130;2022-08-24T04:01:44;27.45;;;11.57;;
69363;SDS011;56526;55.406;86.130;2022-08-24T04:04:10;21.13;;;10.27;;
69363;SDS011;56526;55.406;86.130;2022-08-24T04:06:37;17.73;;;10.48;;
69363;SDS011;56526;55.406;86.130;2022-08-24T04:09:04;15.90;;;9.35;;
69363;SDS011;56526;55.406;86.130;2022-08-24T04:11:30;16.70;;;9.35;;
69363;SDS011;56526;55.406;86.130;2022-08-24T04:13:59;20.05;;;10.75;;
69363;SDS011;56526;55.406;86.130;2022-08-24T04:16:25;23.10;;;12.95;;
69363;SDS011;56526;55.406;86.130;2022-08-24T04:18:53;23.23;;;12.27;;
69363;SDS011;56526;55.406;86.130;2022-08-24T04:23:54;25.23;;;13.80;;
69363;SDS011;56526;55.406;86.130;2022-08-24T04:26:22;22.98;;;11.90;;
69363;SDS011;56526;55.406;86.130;2022-08-24T04:28:51;24.38;;;11.35;;
69363;SDS011;56526;55.406;86.130;2022-08-24T04:31:18;18.42;;;9.98;;
69363;SDS011;56526;55.406;86.130;2022-08-24T04:33:45;14.25;;;8.02;;
69363;SDS011;56526;55.406;86.130;2022-08-24T04:36:13;10.77;;;7.28;;
69363;SDS011;56526;55.406;86.130;2022-08-24T04:38:39;13.73;;;7.18;;
69363;SDS011;56526;55.406;86.130;2022-08-24T04:41:06;12.70;;;7.80;;
69363;SDS011;56526;55.406;86.130;2022-08-24T04:43:35;8.05;;;5.95;;
69363;SDS011;56526;55.406;86.130;2022-08-24T04:46:05;9.52;;;5.07;;
69363;SDS011;56526;55.406;86.130;2022-08-24T04:48:32;12.45;;;5.95;;
69363;SDS011;56526;55.406;86.130;2022-08-24T04:51:00;9.95;;;6.60;;
69363;SDS011;56526;55.406;86.130;2022-08-24T04:53:29;10.32;;;5.38;;
69363;SDS011;56526;55.406;86.130;2022-08-24T04:55:56;9.48;;;4.72;;
69363;SDS011;56526;55.406;86.130;2022-08-24T04:58:23;8.55;;;5.38;;
69363;SDS011;56526;55.406;86.130;2022-08-24T05:00:50;7.88;;;6.10;;
69363;SDS011;56526;55.406;86.130;2022-08-24T05:03:16;8.50;;;5.38;;
69363;SDS011;56526;55.406;86.130;2022-08-24T05:05:49;11.07;;;3.97;;
69363;SDS011;56526;55.406;86.130;2022-08-24T05:08:17;10.25;;;5.97;;
69363;SDS011;56526;55.406;86.130;2022-08-24T05:10:45;9.48;;;5.13;;
69363;SDS011;56526;55.406;86.130;2022-08-24T05:13:13;8.05;;;6.07;;
69363;SDS011;56526;55.406;86.130;2022-08-24T05:15:45;8.50;;;3.72;;
69363;SDS011;56526;55.406;86.130;2022-08-24T05:18:13;8.27;;;5.38;;
69363;SDS011;56526;55.406;86.130;2022-08-24T05:20:42;8.13;;;5.70;;
69363;SDS011;56526;55.406;86.130;2022-08-24T05:23:11;6.88;;;4.85;;
69363;SDS011;56526;55.406;86.130;2022-08-24T05:25:39;5.72;;;3.80;;
69363;SDS011;56526;55.406;86.130;2022-08-24T05:28:06;5.32;;;3.70;;
69363;SDS011;56526;55.406;86.130;2022-08-24T05:30:33;4.07;;;3.72;;
69363;SDS011;56526;55.406;86.130;2022-08-24T05:33:00;4.45;;;3.83;;
69363;SDS011;56526;55.406;86.130;2022-08-24T05:35:27;7.03;;;3.42;;
69363;SDS011;56526;55.406;86.130;2022-08-24T05:37:53;4.88;;;3.42;;
69363;SDS011;56526;55.406;86.130;2022-08-24T05:40:19;4.18;;;2.50;;
69363;SDS011;56526;55.406;86.130;2022-08-24T05:42:46;4.43;;;4.22;;
69363;SDS011;56526;55.406;86.130;2022-08-24T05:45:12;3.45;;;3.15;;
69363;SDS011;56526;55.406;86.130;2022-08-24T05:47:38;3.40;;;3.10;;
69363;SDS011;56526;55.406;86.130;2022-08-24T05:50:05;4.28;;;3.97;;
69363;SDS011;56526;55.406;86.130;2022-08-24T05:52:32;2.97;;;2.28;;
69363;SDS011;56526;55.406;86.130;2022-08-24T05:54:59;4.82;;;3.65;;
69363;SDS011;56526;55.406;86.130;2022-08-24T05:57:27;3.85;;;3.55;;
69363;SDS011;56526;55.406;86.130;2022-08-24T05:59:59;3.03;;;2.33;;
69363;SDS011;56526;55.406;86.130;2022-08-24T06:02:25;3.75;;;3.50;;
69363;SDS011;56526;55.406;86.130;2022-08-24T06:04:51;7.00;;;3.72;;
69363;SDS011;56526;55.406;86.130;2022-08-24T06:07:17;5.68;;;3.83;;
69363;SDS011;56526;55.406;86.130;2022-08-24T06:09:44;6.20;;;3.90;;
69363;SDS011;56526;55.406;86.130;2022-08-24T06:12:10;3.72;;;3.03;;
69363;SDS011;56526;55.406;86.130;2022-08-24T06:14:37;5.72;;;4.72;;
69363;SDS011;56526;55.406;86.130;2022-08-24T06:17:04;4.32;;;3.92;;
69363;SDS011;56526;55.406;86.130;2022-08-24T06:19:33;3.95;;;3.38;;
69363;SDS011;56526;55.406;86.130;2022-08-24T06:22:01;3.95;;;3.65;;
69363;SDS011;56526;55.406;86.130;2022-08-24T06:24:27;4.18;;;3.80;;
69363;SDS011;56526;55.406;86.130;2022-08-24T06:26:53;4.60;;;3.42;;
69363;SDS011;56526;55.406;86.130;2022-08-24T06:29:20;2.67;;;2.47;;
69363;SDS011;56526;55.406;86.130;2022-08-24T06:31:47;4.93;;;4.63;;
69363;SDS011;56526;55.406;86.130;2022-08-24T06:34:15;2.92;;;2.60;;
69363;SDS011;56526;55.406;86.130;2022-08-24T06:36:43;5.97;;;5.35;;
69363;SDS011;56526;55.406;86.130;2022-08-24T06:39:10;7.35;;;4.25;;
69363;SDS011;56526;55.406;86.130;2022-08-24T06:41:37;5.30;;;4.65;;
69363;SDS011;56526;55.406;86.130;2022-08-24T06:44:04;3.33;;;2.30;;
69363;SDS011;56526;55.406;86.130;2022-08-24T06:46:32;7.65;;;5.43;;
69363;SDS011;56526;55.406;86.130;2022-08-24T06:48:59;6.07;;;3.75;;
69363;SDS011;56526;55.406;86.130;2022-08-24T06:51:25;3.72;;;3.03;;
69363;SDS011;56526;55.406;86.130;2022-08-24T06:53:52;7.47;;;3.67;;
69363;SDS011;56526;55.406;86.130;2022-08-24T06:56:19;10.25;;;3.47;;
69363;SDS011;56526;55.406;86.130;2022-08-24T06:58:46;5.15;;;2.05;;
69363;SDS011;56526;55.406;86.130;2022-08-24T07:01:20;3.92;;;3.55;;
69363;SDS011;56526;55.406;86.130;2022-08-24T07:03:49;4.45;;;3.25;;
69363;SDS011;56526;55.406;86.130;2022-08-24T07:06:16;4.15;;;2.88;;
69363;SDS011;56526;55.406;86.130;2022-08-24T07:08:43;5.18;;;4.78;;
69363;SDS011;56526;55.406;86.130;2022-08-24T07:11:17;6.18;;;3.88;;
69363;SDS011;56526;55.406;86.130;2022-08-24T07:13:44;5.88;;;3.53;;
69363;SDS011;56526;55.406;86.130;2022-08-24T07:16:13;5.28;;;3.95;;
69363;SDS011;56526;55.406;86.130;2022-08-24T07:18:43;4.25;;;3.72;;
69363;SDS011;56526;55.406;86.130;2022-08-24T07:21:10;4.30;;;3.53;;
69363;SDS011;56526;55.406;86.130;2022-08-24T07:23:38;4.72;;;3.55;;
69363;SDS011;56526;55.406;86.130;2022-08-24T07:26:08;6.88;;;3.38;;
69363;SDS011;56526;55.406;86.130;2022-08-24T07:28:38;5.63;;;4.05;;
69363;SDS011;56526;55.406;86.130;2022-08-24T07:31:05;4.45;;;3.30;;
69363;SDS011;56526;55.406;86.130;2022-08-24T07:33:32;5.35;;;2.25;;
69363;SDS011;56526;55.406;86.130;2022-08-24T07:35:58;4.50;;;3.70;;
69363;SDS011;56526;55.406;86.130;2022-08-24T07:38:25;4.70;;;4.30;;
69363;SDS011;56526;55.406;86.130;2022-08-24T07:40:51;11.30;;;3.30;;
69363;SDS011;56526;55.406;86.130;2022-08-24T07:43:19;6.75;;;4.47;;
69363;SDS011;56526;55.406;86.130;2022-08-24T07:45:46;4.68;;;4.28;;
69363;SDS011;56526;55.406;86.130;2022-08-24T07:48:13;3.70;;;3.40;;
69363;SDS011;56526;55.406;86.130;2022-08-24T07:50:40;12.88;;;3.45;;
69363;SDS011;56526;55.406;86.130;2022-08-24T07:53:06;3.55;;;2.35;;
69363;SDS011;56526;55.406;86.130;2022-08-24T07:55:34;7.28;;;3.95;;
69363;SDS011;56526;55.406;86.130;2022-08-24T07:58:01;6.43;;;3.22;;
69363;SDS011;56526;55.406;86.130;2022-08-24T08:00:27;3.38;;;3.08;;
69363;SDS011;56526;55.406;86.130;2022-08-24T08:02:53;5.35;;;4.85;;
69363;SDS011;56526;55.406;86.130;2022-08-24T08:05:20;3.72;;;3.53;;
69363;SDS011;56526;55.406;86.130;2022-08-24T08:07:48;3.75;;;3.55;;
69363;SDS011;56526;55.406;86.130;2022-08-24T08:10:15;3.72;;;3.47;;
69363;SDS011;56526;55.406;86.130;2022-08-24T08:12:42;6.30;;;4.00;;
69363;SDS011;56526;55.406;86.130;2022-08-24T08:15:08;3.45;;;3.15;;
69363;SDS011;56526;55.406;86.130;2022-08-24T08:17:36;6.68;;;2.95;;
69363;SDS011;56526;55.406;86.130;2022-08-24T08:20:06;5.30;;;4.63;;
69363;SDS011;56526;55.406;86.130;2022-08-24T08:22:34;4.20;;;3.75;;
69363;SDS011;56526;55.406;86.130;2022-08-24T08:25:00;4.70;;;4.30;;
69363;SDS011;56526;55.406;86.130;2022-08-24T08:27:27;4.03;;;3.67;;
69363;SDS011;56526;55.406;86.130;2022-08-24T08:29:54;5.50;;;4.13;;
69363;SDS011;56526;55.406;86.130;2022-08-24T08:32:20;4.07;;;3.65;;
69363;SDS011;56526;55.406;86.130;2022-08-24T08:34:46;3.78;;;3.15;;
69363;SDS011;56526;55.406;86.130;2022-08-24T08:37:13;5.15;;;4.15;;
69363;SDS011;56526;55.406;86.130;2022-08-24T08:39:39;6.55;;;4.03;;
69363;SDS011;56526;55.406;86.130;2022-08-24T08:57:38;5.93;;;4.63;;
69363;SDS011;56526;55.406;86.130;2022-08-24T09:00:20;7.45;;;3.97;;
69363;SDS011;56526;55.406;86.130;2022-08-24T09:12:33;3.58;;;3.25;;
69363;SDS011;56526;55.406;86.130;2022-08-24T09:30:20;5.65;;;5.15;;
69363;SDS011;56526;55.406;86.130;2022-08-24T09:35:31;6.57;;;4.28;;
69363;SDS011;56526;55.406;86.130;2022-08-24T09:38:20;7.03;;;4.80;;
69363;SDS011;56526;55.406;86.130;2022-08-24T09:47:04;7.60;;;4.85;;
69363;SDS011;56526;55.406;86.130;2022-08-24T09:52:17;3.72;;;2.30;;
69363;SDS011;56526;55.406;86.130;2022-08-24T10:01:03;6.53;;;3.33;;
69363;SDS011;56526;55.406;86.130;2022-08-24T10:09:52;6.05;;;4.10;;
69363;SDS011;56526;55.406;86.130;2022-08-24T10:18:57;5.57;;;4.55;;
69363;SDS011;56526;55.406;86.130;2022-08-24T10:22:10;6.13;;;4.35;;
69363;SDS011;56526;55.406;86.130;2022-08-24T10:30:17;7.82;;;4.95;;
69363;SDS011;56526;55.406;86.130;2022-08-24T10:33:11;5.57;;;4.53;;
69363;SDS011;56526;55.406;86.130;2022-08-24T10:47:33;7.85;;;5.22;;
69363;SDS011;56526;55.406;86.130;2022-08-24T10:52:56;8.45;;;6.28;;
69363;SDS011;56526;55.406;86.130;2022-08-24T10:55:42;8.35;;;5.10;;
69363;SDS011;56526;55.406;86.130;2022-08-24T11:01:34;10.40;;;5.20;;
69363;SDS011;56526;55.406;86.130;2022-08-24T11:04:07;7.72;;;5.40;;
69363;SDS011;56526;55.406;86.130;2022-08-24T11:06:40;8.85;;;5.95;;
69363;SDS011;56526;55.406;86.130;2022-08-24T11:09:48;9.00;;;6.20;;
69363;SDS011;56526;55.406;86.130;2022-08-24T11:12:24;12.73;;;7.07;;
69363;SDS011;56526;55.406;86.130;2022-08-24T11:15:01;11.15;;;7.75;;
69363;SDS011;56526;55.406;86.130;2022-08-24T11:17:53;8.50;;;6.05;;
69363;SDS011;56526;55.406;86.130;2022-08-24T11:23:02;11.90;;;7.90;;
69363;SDS011;56526;55.406;86.130;2022-08-24T11:25:35;11.07;;;6.35;;
69363;SDS011;56526;55.406;86.130;2022-08-24T11:28:06;14.13;;;6.82;;
69363;SDS011;56526;55.406;86.130;2022-08-24T11:34:06;8.68;;;7.35;;
69363;SDS011;56526;55.406;86.130;2022-08-24T11:36:39;10.10;;;7.43;;
69363;SDS011;56526;55.406;86.130;2022-08-24T11:39:20;16.20;;;8.23;;
69363;SDS011;56526;55.406;86.130;2022-08-24T11:42:01;15.88;;;9.15;;
69363;SDS011;56526;55.406;86.130;2022-08-24T11:44:38;14.75;;;8.73;;
69363;SDS011;56526;55.406;86.130;2022-08-24T12:01:28;16.77;;;10.10;;
69363;SDS011;56526;55.406;86.130;2022-08-24T12:07:18;17.70;;;10.15;;
69363;SDS011;56526;55.406;86.130;2022-08-24T12:19:08;15.80;;;7.72;;
69363;SDS011;56526;55.406;86.130;2022-08-24T12:21:42;16.45;;;8.68;;
69363;SDS011;56526;55.406;86.130;2022-08-24T12:24:15;17.50;;;10.05;;
69363;SDS011;56526;55.406;86.130;2022-08-24T12:27:36;15.40;;;10.20;;
69363;SDS011;56526;55.406;86.130;2022-08-24T12:30:05;16.50;;;9.25;;
69363;SDS011;56526;55.406;86.130;2022-08-24T12:32:47;18.65;;;8.40;;
69363;SDS011;56526;55.406;86.130;2022-08-24T12:35:27;13.70;;;9.63;;
69363;SDS011;56526;55.406;86.130;2022-08-24T12:38:13;12.48;;;7.50;;
69363;SDS011;56526;55.406;86.130;2022-08-24T12:41:04;17.90;;;10.45;;
69363;SDS011;56526;55.406;86.130;2022-08-24T12:43:56;17.15;;;10.85;;
69363;SDS011;56526;55.406;86.130;2022-08-24T12:46:37;25.30;;;11.75;;
69363;SDS011;56526;55.406;86.130;2022-08-24T12:52:13;46.70;;;18.67;;
69363;SDS011;56526;55.406;86.130;2022-08-24T12:55:16;41.78;;;17.75;;
69363;SDS011;56526;55.406;86.130;2022-08-24T12:58:31;36.88;;;17.02;;
69363;SDS011;56526;55.406;86.130;2022-08-24T13:01:36;35.00;;;16.20;;
69363;SDS011;56526;55.406;86.130;2022-08-24T13:04:17;30.77;;;15.23;;
69363;SDS011;56526;55.406;86.130;2022-08-24T13:07:25;27.65;;;12.90;;
69363;SDS011;56526;55.406;86.130;2022-08-24T13:17:50;26.25;;;12.38;;
69363;SDS011;56526;55.406;86.130;2022-08-24T13:23:18;24.77;;;11.38;;
69363;SDS011;56526;55.406;86.130;2022-08-24T13:30:56;20.65;;;10.50;;
69363;SDS011;56526;55.406;86.130;2022-08-24T13:41:52;25.65;;;10.93;;
69363;SDS011;56526;55.406;86.130;2022-08-24T13:56:21;23.42;;;11.30;;
69363;SDS011;56526;55.406;86.130;2022-08-24T13:59:08;26.27;;;12.25;;
69363;SDS011;56526;55.406;86.130;2022-08-24T14:02:24;28.63;;;11.93;;
69363;SDS011;56526;55.406;86.130;2022-08-24T14:07:50;23.63;;;11.95;;
69363;SDS011;56526;55.406;86.130;2022-08-24T14:22:34;19.65;;;11.55;;
69363;SDS011;56526;55.406;86.130;2022-08-24T14:25:27;22.95;;;10.98;;
69363;SDS011;56526;55.406;86.130;2022-08-24T14:38:24;31.23;;;15.30;;
69363;SDS011;56526;55.406;86.130;2022-08-24T14:50:15;47.70;;;20.75;;
69363;SDS011;56526;55.406;86.130;2022-08-24T14:55:30;64.65;;;26.67;;
69363;SDS011;56526;55.406;86.130;2022-08-24T15:09:47;37.22;;;17.02;;
69363;SDS011;56526;55.406;86.130;2022-08-24T15:34:51;19.92;;;11.90;;
69363;SDS011;56526;55.406;86.130;2022-08-24T15:37:38;19.30;;;11.18;;
69363;SDS011;56526;55.406;86.130;2022-08-24T15:40:26;14.77;;;9.75;;
69363;SDS011;56526;55.406;86.130;2022-08-24T15:42:55;18.30;;;11.18;;
69363;SDS011;56526;55.406;86.130;2022-08-24T15:45:25;20.13;;;9.20;;
69363;SDS011;56526;55.406;86.130;2022-08-24T15:47:52;15.50;;;9.35;;
69363;SDS011;56526;55.406;86.130;2022-08-24T15:50:20;15.50;;;7.50;;
69363;SDS011;56526;55.406;86.130;2022-08-24T15:58:22;12.65;;;6.88;;
69363;SDS011;56526;55.406;86.130;2022-08-24T16:03:49;15.45;;;7.82;;
69363;SDS011;56526;55.406;86.130;2022-08-24T16:06:34;14.38;;;8.90;;
69363;SDS011;56526;55.406;86.130;2022-08-24T16:09:09;15.13;;;7.63;;
69363;SDS011;56526;55.406;86.130;2022-08-24T16:15:16;11.00;;;6.93;;
69363;SDS011;56526;55.406;86.130;2022-08-24T16:17:45;13.40;;;8.55;;
69363;SDS011;56526;55.406;86.130;2022-08-24T16:22:56;11.80;;;8.95;;
69363;SDS011;56526;55.406;86.130;2022-08-24T16:25:30;12.48;;;7.32;;
69363;SDS011;56526;55.406;86.130;2022-08-24T16:30:55;12.00;;;6.78;;
69363;SDS011;56526;55.406;86.130;2022-08-24T16:35:56;11.45;;;8.43;;
69363;SDS011;56526;55.406;86.130;2022-08-24T16:38:25;9.38;;;7.25;;
69363;SDS011;56526;55.406;86.130;2022-08-24T16:40:52;10.95;;;7.57;;
69363;SDS011;56526;55.406;86.130;2022-08-24T16:43:22;14.18;;;8.07;;
69363;SDS011;56526;55.406;86.130;2022-08-24T16:45:49;13.25;;;9.05;;
69363;SDS011;56526;55.406;86.130;2022-08-24T16:48:15;17.50;;;7.82;;
69363;SDS011;56526;55.406;86.130;2022-08-24T16:50:42;12.48;;;8.18;;
69363;SDS011;56526;55.406;86.130;2022-08-24T16:53:08;15.68;;;9.32;;
69363;SDS011;56526;55.406;86.130;2022-08-24T16:55:34;12.88;;;9.57;;
69363;SDS011;56526;55.406;86.130;2022-08-24T16:58:01;13.13;;;10.05;;
69363;SDS011;56526;55.406;86.130;2022-08-24T17:00:29;15.50;;;8.98;;
69363;SDS011;56526;55.406;86.130;2022-08-24T17:02:55;11.90;;;8.15;;
69363;SDS011;56526;55.406;86.130;2022-08-24T17:05:22;15.57;;;9.90;;
69363;SDS011;56526;55.406;86.130;2022-08-24T17:07:48;15.75;;;8.75;;
69363;SDS011;56526;55.406;86.130;2022-08-24T17:10:14;16.83;;;7.30;;
69363;SDS011;56526;55.406;86.130;2022-08-24T17:12:43;13.73;;;8.57;;
69363;SDS011;56526;55.406;86.130;2022-08-24T17:15:09;13.10;;;9.00;;
69363;SDS011;56526;55.406;86.130;2022-08-24T17:17:37;15.77;;;7.18;;
69363;SDS011;56526;55.406;86.130;2022-08-24T17:20:05;14.85;;;8.80;;
69363;SDS011;56526;55.406;86.130;2022-08-24T17:22:33;19.08;;;9.20;;
69363;SDS011;56526;55.406;86.130;2022-08-24T17:25:00;17.58;;;10.52;;
69363;SDS011;56526;55.406;86.130;2022-08-24T17:27:27;23.58;;;11.90;;
69363;SDS011;56526;55.406;86.130;2022-08-24T17:32:28;22.15;;;12.00;;
69363;SDS011;56526;55.406;86.130;2022-08-24T17:34:54;22.08;;;12.32;;
69363;SDS011;56526;55.406;86.130;2022-08-24T17:37:21;20.35;;;10.35;;
69363;SDS011;56526;55.406;86.130;2022-08-24T17:39:51;19.05;;;10.57;;
69363;SDS011;56526;55.406;86.130;2022-08-24T17:42:22;22.48;;;11.50;;
69363;SDS011;56526;55.406;86.130;2022-08-24T17:44:49;17.98;;;10.57;;
69363;SDS011;56526;55.406;86.130;2022-08-24T17:47:15;20.33;;;11.43;;
69363;SDS011;56526;55.406;86.130;2022-08-24T17:49:43;15.25;;;10.80;;
69363;SDS011;56526;55.406;86.130;2022-08-24T17:52:09;18.70;;;8.60;;
69363;SDS011;56526;55.406;86.130;2022-08-24T17:54:36;27.25;;;12.43;;
69363;SDS011;56526;55.406;86.130;2022-08-24T17:57:02;14.55;;;9.15;;
69363;SDS011;56526;55.406;86.130;2022-08-24T17:59:30;24.80;;;11.15;;
69363;SDS011;56526;55.406;86.130;2022-08-24T18:02:06;18.23;;;10.63;;
69363;SDS011;56526;55.406;86.130;2022-08-24T18:04:35;21.63;;;10.90;;
69363;SDS011;56526;55.406;86.130;2022-08-24T18:07:06;20.92;;;12.25;;
69363;SDS011;56526;55.406;86.130;2022-08-24T18:09:44;19.15;;;10.65;;
69363;SDS011;56526;55.406;86.130;2022-08-24T18:12:16;25.13;;;11.55;;
69363;SDS011;56526;55.406;86.130;2022-08-24T18:14:45;19.70;;;11.10;;
69363;SDS011;56526;55.406;86.130;2022-08-24T18:17:13;17.50;;;10.85;;
69363;SDS011;56526;55.406;86.130;2022-08-24T18:19:43;18.10;;;11.18;;
69363;SDS011;56526;55.406;86.130;2022-08-24T18:22:12;24.25;;;10.82;;
69363;SDS011;56526;55.406;86.130;2022-08-24T18:24:38;22.70;;;12.93;;
69363;SDS011;56526;55.406;86.130;2022-08-24T18:27:06;20.98;;;11.07;;
69363;SDS011;56526;55.406;86.130;2022-08-24T18:29:41;23.38;;;12.35;;
69363;SDS011;56526;55.406;86.130;2022-08-24T18:32:10;20.23;;;12.40;;
69363;SDS011;56526;55.406;86.130;2022-08-24T18:34:36;21.52;;;12.77;;
69363;SDS011;56526;55.406;86.130;2022-08-24T18:37:05;19.67;;;9.57;;
69363;SDS011;56526;55.406;86.130;2022-08-24T18:39:32;21.75;;;11.13;;
69363;SDS011;56526;55.406;86.130;2022-08-24T18:41:59;20.63;;;12.75;;
69363;SDS011;56526;55.406;86.130;2022-08-24T18:44:28;20.88;;;11.82;;
69363;SDS011;56526;55.406;86.130;2022-08-24T18:46:54;21.98;;;12.23;;
69363;SDS011;56526;55.406;86.130;2022-08-24T18:49:21;19.88;;;11.73;;
69363;SDS011;56526;55.406;86.130;2022-08-24T18:51:54;17.73;;;11.13;;
69363;SDS011;56526;55.406;86.130;2022-08-24T18:54:22;19.60;;;10.82;;
69363;SDS011;56526;55.406;86.130;2022-08-24T18:56:53;20.08;;;9.15;;
69363;SDS011;56526;55.406;86.130;2022-08-24T18:59:20;21.00;;;9.80;;
69363;SDS011;56526;55.406;86.130;2022-08-24T19:01:47;18.85;;;9.77;;
69363;SDS011;56526;55.406;86.130;2022-08-24T19:04:16;20.65;;;12.15;;